sensor_id;sensor_type;location;lat;lon;timestamp;P1;durP1;ratioP1;P2;durP2;ratioP2
61483;SDS011;47349;55.640;37.692;2023-07-29T00:02:13;5.40;;;3.90;;
61483;SDS011;47349;55.640;37.692;2023-07-29T00:38:00;4.38;;;3.75;;
61483;SDS011;47349;55.640;37.692;2023-07-29T00:59:03;6.88;;;4.45;;
61483;SDS011;47349;55.640;37.692;2023-07-29T01:34:26;5.07;;;4.57;;
61483;SDS011;47349;55.640;37.692;2023-07-29T02:09:14;10.27;;;4.82;;
61483;SDS011;47349;55.640;37.692;2023-07-29T02:11:41;6.82;;;5.03;;
61483;SDS011;47349;55.640;37.692;2023-07-29T02:14:09;7.47;;;5.10;;
61483;SDS011;47349;55.640;37.692;2023-07-29T02:16:36;6.63;;;4.72;;
61483;SDS011;47349;55.640;37.692;2023-07-29T02:19:25;7.78;;;4.88;;
61483;SDS011;47349;55.640;37.692;2023-07-29T02:21:52;8.90;;;5.25;;
61483;SDS011;47349;55.640;37.692;2023-07-29T02:24:19;8.07;;;4.82;;
61483;SDS011;47349;55.640;37.692;2023-07-29T02:26:50;7.10;;;5.22;;
61483;SDS011;47349;55.640;37.692;2023-07-29T02:29:19;7.45;;;5.60;;
61483;SDS011;47349;55.640;37.692;2023-07-29T02:31:47;7.15;;;5.55;;
61483;SDS011;47349;55.640;37.692;2023-07-29T02:34:15;6.90;;;6.13;;
61483;SDS011;47349;55.640;37.692;2023-07-29T02:36:45;6.55;;;5.45;;
61483;SDS011;47349;55.640;37.692;2023-07-29T02:39:13;8.55;;;6.40;;
61483;SDS011;47349;55.640;37.692;2023-07-29T02:41:41;9.75;;;6.75;;
61483;SDS011;47349;55.640;37.692;2023-07-29T02:44:13;9.45;;;5.70;;
61483;SDS011;47349;55.640;37.692;2023-07-29T02:46:46;8.05;;;6.50;;
61483;SDS011;47349;55.640;37.692;2023-07-29T02:49:13;10.30;;;7.80;;
61483;SDS011;47349;55.640;37.692;2023-07-29T02:51:43;8.90;;;6.85;;
61483;SDS011;47349;55.640;37.692;2023-07-29T02:54:26;9.77;;;6.95;;
61483;SDS011;47349;55.640;37.692;2023-07-29T02:57:10;11.77;;;6.30;;
61483;SDS011;47349;55.640;37.692;2023-07-29T03:03:48;12.02;;;7.38;;
61483;SDS011;47349;55.640;37.692;2023-07-29T03:06:23;9.10;;;6.35;;
61483;SDS011;47349;55.640;37.692;2023-07-29T03:08:51;9.70;;;7.60;;
61483;SDS011;47349;55.640;37.692;2023-07-29T03:11:19;11.40;;;7.60;;
61483;SDS011;47349;55.640;37.692;2023-07-29T03:13:47;11.90;;;7.72;;
61483;SDS011;47349;55.640;37.692;2023-07-29T03:16:15;8.70;;;6.13;;
61483;SDS011;47349;55.640;37.692;2023-07-29T03:18:55;12.48;;;8.23;;
61483;SDS011;47349;55.640;37.692;2023-07-29T03:21:38;12.75;;;7.97;;
61483;SDS011;47349;55.640;37.692;2023-07-29T03:24:05;12.55;;;8.50;;
61483;SDS011;47349;55.640;37.692;2023-07-29T03:26:36;13.52;;;8.98;;
61483;SDS011;47349;55.640;37.692;2023-07-29T03:29:04;13.45;;;8.48;;
61483;SDS011;47349;55.640;37.692;2023-07-29T03:31:38;15.68;;;9.98;;
61483;SDS011;47349;55.640;37.692;2023-07-29T03:34:19;13.15;;;8.70;;
61483;SDS011;47349;55.640;37.692;2023-07-29T03:36:47;14.45;;;9.48;;
61483;SDS011;47349;55.640;37.692;2023-07-29T03:39:32;12.05;;;7.38;;
61483;SDS011;47349;55.640;37.692;2023-07-29T03:42:15;14.13;;;9.32;;
61483;SDS011;47349;55.640;37.692;2023-07-29T03:44:57;14.23;;;8.75;;
61483;SDS011;47349;55.640;37.692;2023-07-29T03:47:40;12.65;;;7.75;;
61483;SDS011;47349;55.640;37.692;2023-07-29T03:50:22;11.48;;;7.78;;
61483;SDS011;47349;55.640;37.692;2023-07-29T03:53:06;11.07;;;6.60;;
61483;SDS011;47349;55.640;37.692;2023-07-29T03:55:39;14.65;;;8.63;;
61483;SDS011;47349;55.640;37.692;2023-07-29T03:58:22;11.20;;;7.63;;
61483;SDS011;47349;55.640;37.692;2023-07-29T04:01:07;13.68;;;8.55;;
61483;SDS011;47349;55.640;37.692;2023-07-29T04:29:46;8.98;;;6.88;;
61483;SDS011;47349;55.640;37.692;2023-07-29T04:46:00;8.05;;;5.82;;
61483;SDS011;47349;55.640;37.692;2023-07-29T05:04:33;8.05;;;5.43;;
61483;SDS011;47349;55.640;37.692;2023-07-29T05:07:02;7.28;;;5.88;;
61483;SDS011;47349;55.640;37.692;2023-07-29T05:15:33;10.50;;;5.00;;
61483;SDS011;47349;55.640;37.692;2023-07-29T05:18:01;7.63;;;4.53;;
61483;SDS011;47349;55.640;37.692;2023-07-29T05:20:28;5.32;;;4.47;;
61483;SDS011;47349;55.640;37.692;2023-07-29T05:22:56;7.22;;;4.65;;
61483;SDS011;47349;55.640;37.692;2023-07-29T05:25:23;5.28;;;4.00;;
61483;SDS011;47349;55.640;37.692;2023-07-29T05:27:53;5.40;;;4.32;;
61483;SDS011;47349;55.640;37.692;2023-07-29T06:13:47;5.30;;;4.57;;
61483;SDS011;47349;55.640;37.692;2023-07-29T06:39:50;7.90;;;4.80;;
61483;SDS011;47349;55.640;37.692;2023-07-29T07:23:22;9.95;;;4.90;;
61483;SDS011;47349;55.640;37.692;2023-07-29T07:32:23;5.38;;;3.55;;
61483;SDS011;47349;55.640;37.692;2023-07-29T07:44:28;6.13;;;5.03;;
61483;SDS011;47349;55.640;37.692;2023-07-29T07:46:55;8.50;;;5.28;;
61483;SDS011;47349;55.640;37.692;2023-07-29T07:49:23;6.13;;;4.97;;
61483;SDS011;47349;55.640;37.692;2023-07-29T07:51:51;9.10;;;4.68;;
61483;SDS011;47349;55.640;37.692;2023-07-29T07:54:18;12.95;;;5.68;;
61483;SDS011;47349;55.640;37.692;2023-07-29T07:56:45;7.10;;;4.95;;
61483;SDS011;47349;55.640;37.692;2023-07-29T08:11:36;10.88;;;6.97;;
61483;SDS011;47349;55.640;37.692;2023-07-29T10:29:58;16.45;;;11.10;;
61483;SDS011;47349;55.640;37.692;2023-07-29T11:23:26;9.50;;;7.47;;
61483;SDS011;47349;55.640;37.692;2023-07-29T11:25:58;13.52;;;7.45;;
61483;SDS011;47349;55.640;37.692;2023-07-29T11:28:27;10.10;;;7.22;;
61483;SDS011;47349;55.640;37.692;2023-07-29T11:30:56;11.77;;;8.57;;
61483;SDS011;47349;55.640;37.692;2023-07-29T11:33:25;9.80;;;6.55;;
61483;SDS011;47349;55.640;37.692;2023-07-29T11:35:55;7.80;;;6.78;;
61483;SDS011;47349;55.640;37.692;2023-07-29T13:01:19;10.52;;;6.70;;
61483;SDS011;47349;55.640;37.692;2023-07-29T14:00:49;9.38;;;5.40;;
61483;SDS011;47349;55.640;37.692;2023-07-29T14:03:17;9.10;;;4.80;;
61483;SDS011;47349;55.640;37.692;2023-07-29T14:05:49;8.13;;;4.70;;
61483;SDS011;47349;55.640;37.692;2023-07-29T14:12:07;7.85;;;4.97;;
61483;SDS011;47349;55.640;37.692;2023-07-29T14:16:00;6.53;;;3.88;;
61483;SDS011;47349;55.640;37.692;2023-07-29T14:18:30;8.35;;;3.70;;
61483;SDS011;47349;55.640;37.692;2023-07-29T14:20:59;7.07;;;3.63;;
61483;SDS011;47349;55.640;37.692;2023-07-29T14:23:27;5.97;;;3.88;;
61483;SDS011;47349;55.640;37.692;2023-07-29T14:25:54;4.85;;;3.30;;
61483;SDS011;47349;55.640;37.692;2023-07-29T14:28:22;3.97;;;3.47;;
61483;SDS011;47349;55.640;37.692;2023-07-29T14:30:49;5.22;;;3.00;;
61483;SDS011;47349;55.640;37.692;2023-07-29T14:33:17;5.80;;;3.38;;
61483;SDS011;47349;55.640;37.692;2023-07-29T14:35:50;8.80;;;4.18;;
61483;SDS011;47349;55.640;37.692;2023-07-29T14:47:38;4.55;;;3.58;;
61483;SDS011;47349;55.640;37.692;2023-07-29T16:18:59;8.65;;;4.68;;
61483;SDS011;47349;55.640;37.692;2023-07-29T16:33:18;7.88;;;4.68;;
61483;SDS011;47349;55.640;37.692;2023-07-29T16:38:41;5.55;;;4.07;;
61483;SDS011;47349;55.640;37.692;2023-07-29T16:41:09;8.88;;;4.50;;
61483;SDS011;47349;55.640;37.692;2023-07-29T17:15:22;6.20;;;4.30;;
61483;SDS011;47349;55.640;37.692;2023-07-29T17:17:52;9.40;;;4.55;;
61483;SDS011;47349;55.640;37.692;2023-07-29T17:20:21;9.05;;;5.35;;
61483;SDS011;47349;55.640;37.692;2023-07-29T17:22:52;9.13;;;5.13;;
61483;SDS011;47349;55.640;37.692;2023-07-29T17:25:20;7.15;;;4.60;;
61483;SDS011;47349;55.640;37.692;2023-07-29T17:27:47;7.75;;;4.63;;
61483;SDS011;47349;55.640;37.692;2023-07-29T17:30:15;8.05;;;5.30;;
61483;SDS011;47349;55.640;37.692;2023-07-29T17:32:42;11.05;;;5.40;;
61483;SDS011;47349;55.640;37.692;2023-07-29T17:35:12;8.63;;;6.00;;
61483;SDS011;47349;55.640;37.692;2023-07-29T17:44:58;8.38;;;5.65;;
61483;SDS011;47349;55.640;37.692;2023-07-29T18:19:05;14.35;;;6.00;;
61483;SDS011;47349;55.640;37.692;2023-07-29T18:21:35;9.73;;;6.55;;
61483;SDS011;47349;55.640;37.692;2023-07-29T18:24:03;8.02;;;5.57;;
61483;SDS011;47349;55.640;37.692;2023-07-29T18:26:39;12.00;;;6.60;;
61483;SDS011;47349;55.640;37.692;2023-07-29T18:52:33;9.70;;;7.55;;
61483;SDS011;47349;55.640;37.692;2023-07-29T19:42:16;11.80;;;5.70;;
61483;SDS011;47349;55.640;37.692;2023-07-29T20:24:48;13.07;;;6.57;;
61483;SDS011;47349;55.640;37.692;2023-07-29T21:09:47;14.82;;;9.80;;
61483;SDS011;47349;55.640;37.692;2023-07-29T21:12:14;17.58;;;9.50;;
61483;SDS011;47349;55.640;37.692;2023-07-29T21:32:33;13.00;;;7.15;;
61483;SDS011;47349;55.640;37.692;2023-07-29T21:35:04;15.57;;;7.68;;
61483;SDS011;47349;55.640;37.692;2023-07-29T22:10:17;13.27;;;10.00;;
61483;SDS011;47349;55.640;37.692;2023-07-29T22:12:59;19.85;;;10.68;;
